Time;durP1;ratioP1;P1;durP2;ratioP2;P2;SDS_P1;SDS_P2;PMS_P1;PMS_P2;Temp;Humidity;BMP_temperature;BMP_pressure;BME280_temperature;BME280_humidity;BME280_pressure;Samples;Min_cycle;Max_cycle;Signal;HPM_P1;HPM_P2
2022/11/01 00:02:01;;;;;;;109.85;32.20;;;;;;;;;;5053476;28;20502;-34
2022/11/01 00:04:27;;;;;;;118.03;31.98;;;;;;;;;;5053585;28;20017;-34
2022/11/01 00:06:52;;;;;;;124.93;31.10;;;;;;;;;;5053786;28;20024;-34
2022/11/01 00:09:17;;;;;;;105.00;29.65;;;;;;;;;;5053250;28;20025;-34
2022/11/01 00:11:43;;;;;;;99.82;29.13;;;;;;;;;;5052054;28;20048;-34
2022/11/01 00:14:12;;;;;;;102.75;30.52;;;;;;;;;;5053211;28;20120;-34
2022/11/01 00:16:37;;;;;;;93.85;28.45;;;;;;;;;;5053473;28;20021;-34
2022/11/01 00:19:03;;;;;;;89.95;24.98;;;;;;;;;;5053615;28;20079;-34
2022/11/01 00:21:28;;;;;;;82.32;26.52;;;;;;;;;;5053240;28;20028;-34
2022/11/01 00:23:53;;;;;;;87.38;26.40;;;;;;;;;;5053233;28;20021;-34
2022/11/01 00:26:20;;;;;;;77.45;23.85;;;;;;;;;;5053118;28;20063;-34
2022/11/01 00:28:45;;;;;;;88.45;25.83;;;;;;;;;;5052847;28;20062;-35
2022/11/01 00:31:11;;;;;;;78.93;25.48;;;;;;;;;;5051685;28;20037;-34
2022/11/01 00:33:38;;;;;;;89.18;26.30;;;;;;;;;;5053020;28;20418;-34
2022/11/01 00:36:04;;;;;;;91.85;24.98;;;;;;;;;;5053006;28;20112;-34
2022/11/01 00:38:29;;;;;;;111.00;27.83;;;;;;;;;;5051026;28;20116;-35
2022/11/01 00:40:55;;;;;;;96.47;26.70;;;;;;;;;;5053289;28;20021;-34
2022/11/01 00:43:20;;;;;;;94.65;25.05;;;;;;;;;;5052672;28;20024;-34
2022/11/01 00:45:45;;;;;;;98.35;26.92;;;;;;;;;;5053495;28;20021;-34
2022/11/01 00:48:11;;;;;;;82.20;26.80;;;;;;;;;;5052734;28;20449;-34
2022/11/01 00:50:37;;;;;;;81.88;24.63;;;;;;;;;;5052534;28;20037;-34
2022/11/01 00:53:02;;;;;;;80.82;24.33;;;;;;;;;;5052751;28;20456;-34
2022/11/01 00:55:28;;;;;;;74.78;24.08;;;;;;;;;;5052624;28;20028;-34
2022/11/01 00:57:53;;;;;;;81.32;23.23;;;;;;;;;;5052769;28;20025;-35
2022/11/01 01:00:18;;;;;;;93.25;24.98;;;;;;;;;;5052883;28;20017;-34
2022/11/01 01:02:44;;;;;;;76.55;22.75;;;;;;;;;;5051372;28;20117;-34
2022/11/01 01:05:09;;;;;;;93.57;24.58;;;;;;;;;;5052535;28;20017;-34
2022/11/01 01:07:34;;;;;;;90.00;25.70;;;;;;;;;;5052625;28;20036;-34
2022/11/01 01:10:00;;;;;;;88.43;24.85;;;;;;;;;;5051141;28;20421;-34
2022/11/01 01:12:25;;;;;;;93.45;25.15;;;;;;;;;;5052262;28;20028;-35
2022/11/01 01:14:51;;;;;;;90.30;26.35;;;;;;;;;;5052580;28;20031;-34
2022/11/01 01:17:16;;;;;;;98.95;25.08;;;;;;;;;;5052647;28;20033;-34
2022/11/01 01:19:41;;;;;;;92.78;27.10;;;;;;;;;;5052531;28;20017;-34
2022/11/01 01:22:07;;;;;;;99.78;24.98;;;;;;;;;;5052740;28;20036;-34
2022/11/01 01:24:32;;;;;;;92.38;26.67;;;;;;;;;;5051113;28;20033;-34
2022/11/01 01:26:57;;;;;;;94.80;26.05;;;;;;;;;;5052258;28;20021;-34
2022/11/01 01:29:23;;;;;;;99.07;27.48;;;;;;;;;;5052726;28;20570;-35
2022/11/01 01:31:49;;;;;;;97.40;26.17;;;;;;;;;;5052235;28;20476;-34
2022/11/01 01:34:14;;;;;;;74.20;23.42;;;;;;;;;;5050991;28;20016;-34
2022/11/01 01:36:40;;;;;;;97.22;26.92;;;;;;;;;;5052308;28;20528;-34
2022/11/01 01:39:05;;;;;;;101.15;26.40;;;;;;;;;;5052144;28;20021;-34
2022/11/01 01:44:33;;;;;;;97.63;26.08;;;;;;;;;;5052109;28;20043;-34
2022/11/01 01:46:58;;;;;;;107.00;28.23;;;;;;;;;;5052321;28;20021;-34
2022/11/01 01:49:23;;;;;;;100.88;25.65;;;;;;;;;;5053119;28;21983;-34
2022/11/01 01:51:49;;;;;;;94.07;27.57;;;;;;;;;;5055886;28;20028;-34
2022/11/01 01:54:14;;;;;;;89.03;24.38;;;;;;;;;;5054750;28;20329;-34
2022/11/01 01:56:39;;;;;;;107.50;30.42;;;;;;;;;;5055897;28;20021;-34
2022/11/01 01:59:08;;;;;;;98.63;25.92;;;;;;;;;;5055864;28;20025;-34
2022/11/01 02:01:35;;;;;;;89.97;23.95;;;;;;;;;;5054682;28;20490;-34
2022/11/01 02:04:05;;;;;;;86.90;22.23;;;;;;;;;;5055690;28;20052;-34
2022/11/01 02:06:31;;;;;;;83.35;22.58;;;;;;;;;;5054376;28;20108;-34
2022/11/01 02:08:58;;;;;;;67.85;21.27;;;;;;;;;;5056261;28;20102;-34
2022/11/01 02:11:23;;;;;;;68.25;20.15;;;;;;;;;;5054569;28;20043;-34
2022/11/01 02:13:49;;;;;;;66.85;21.48;;;;;;;;;;5054300;28;20021;-34
2022/11/01 02:16:14;;;;;;;91.57;25.38;;;;;;;;;;5054194;28;20052;-34
2022/11/01 02:18:39;;;;;;;78.28;22.33;;;;;;;;;;5055366;28;20440;-34
2022/11/01 02:21:17;;;;;;;67.13;20.88;;;;;;;;;;5055600;28;20048;-34
2022/11/01 02:23:42;;;;;;;80.03;21.92;;;;;;;;;;5055372;28;20076;-34
2022/11/01 02:26:22;;;;;;;63.33;21.37;;;;;;;;;;5055257;28;20052;-34
2022/11/01 02:29:05;;;;;;;73.20;21.13;;;;;;;;;;5055229;28;20346;-34
2022/11/01 02:31:49;;;;;;;60.30;20.30;;;;;;;;;;5054979;28;20036;-34
2022/11/01 02:34:21;;;;;;;69.07;20.35;;;;;;;;;;5055608;28;20021;-34
2022/11/01 02:36:51;;;;;;;62.85;19.50;;;;;;;;;;5053770;28;20163;-34
2022/11/01 02:39:22;;;;;;;54.83;18.80;;;;;;;;;;5053727;28;20040;-34
2022/11/01 02:41:50;;;;;;;56.92;18.67;;;;;;;;;;5053602;28;20025;-35
2022/11/01 02:44:18;;;;;;;51.65;19.10;;;;;;;;;;5054835;28;20017;-34
2022/11/01 02:47:00;;;;;;;50.95;17.48;;;;;;;;;;5054814;28;20029;-34
2022/11/01 02:49:27;;;;;;;64.30;19.90;;;;;;;;;;5053202;28;20084;-34
2022/11/01 02:51:54;;;;;;;62.13;19.75;;;;;;;;;;5054935;28;20017;-34
2022/11/01 02:54:26;;;;;;;55.63;20.02;;;;;;;;;;5054540;28;20028;-35
2022/11/01 02:56:51;;;;;;;60.45;18.02;;;;;;;;;;5053695;28;20503;-35
2022/11/01 02:59:21;;;;;;;55.45;21.63;;;;;;;;;;5053522;28;20044;-35
2022/11/01 03:01:50;;;;;;;55.97;19.92;;;;;;;;;;5052674;28;20476;-34
2022/11/01 03:04:15;;;;;;;50.63;18.70;;;;;;;;;;5053344;28;20487;-35
2022/11/01 03:06:45;;;;;;;56.15;18.85;;;;;;;;;;5053109;28;20064;-35
2022/11/01 03:09:11;;;;;;;65.35;21.45;;;;;;;;;;5052927;28;20472;-34
2022/11/01 03:11:54;;;;;;;56.95;21.70;;;;;;;;;;5054858;28;20036;-34
2022/11/01 03:14:20;;;;;;;65.85;22.13;;;;;;;;;;5054360;28;20017;-35
2022/11/01 03:16:48;;;;;;;63.63;22.25;;;;;;;;;;5054157;28;20016;-34
2022/11/01 03:19:32;;;;;;;62.60;22.83;;;;;;;;;;5054258;28;20021;-34
2022/11/01 03:21:57;;;;;;;72.20;25.88;;;;;;;;;;5054685;28;20017;-35
2022/11/01 03:24:30;;;;;;;66.30;23.67;;;;;;;;;;5054197;28;20117;-34
2022/11/01 03:27:04;;;;;;;79.68;23.88;;;;;;;;;;5054239;28;20254;-34
2022/11/01 03:29:31;;;;;;;92.88;27.63;;;;;;;;;;5054324;28;20028;-34
2022/11/01 03:31:58;;;;;;;79.80;24.95;;;;;;;;;;5053914;28;20028;-34
2022/11/01 03:34:23;;;;;;;96.78;26.45;;;;;;;;;;5052581;28;20025;-34
2022/11/01 03:36:51;;;;;;;83.32;27.10;;;;;;;;;;5052764;28;20078;-34
2022/11/01 03:39:19;;;;;;;86.68;26.60;;;;;;;;;;5052597;28;20024;-34
2022/11/01 03:41:47;;;;;;;77.60;25.98;;;;;;;;;;5052664;28;20051;-34
2022/11/01 03:44:13;;;;;;;75.90;25.25;;;;;;;;;;5053728;28;20028;-34
2022/11/01 03:46:39;;;;;;;97.25;26.60;;;;;;;;;;5053625;28;20028;-34
2022/11/01 03:49:04;;;;;;;78.25;25.50;;;;;;;;;;5052558;28;20456;-34
2022/11/01 03:51:30;;;;;;;66.63;24.15;;;;;;;;;;5053366;28;20102;-34
2022/11/01 03:53:55;;;;;;;69.15;24.13;;;;;;;;;;5053710;28;20018;-34
2022/11/01 03:56:20;;;;;;;61.72;23.55;;;;;;;;;;5053781;28;20028;-34
2022/11/01 03:58:45;;;;;;;69.85;23.33;;;;;;;;;;5053666;28;20063;-34
2022/11/01 04:01:12;;;;;;;59.35;23.02;;;;;;;;;;5053409;28;20028;-34
2022/11/01 04:03:37;;;;;;;66.30;24.17;;;;;;;;;;5053634;28;20028;-34
2022/11/01 04:06:04;;;;;;;71.32;24.75;;;;;;;;;;5053887;28;20048;-34
2022/11/01 04:08:29;;;;;;;72.15;24.92;;;;;;;;;;5052254;28;20534;-34
2022/11/01 04:10:54;;;;;;;78.97;25.20;;;;;;;;;;5053202;28;20032;-34
2022/11/01 04:13:21;;;;;;;64.40;24.05;;;;;;;;;;5052707;28;20025;-34
2022/11/01 04:21:15;;;;;;;71.78;24.35;;;;;;;;;;5053301;28;20051;-34
2022/11/01 04:23:41;;;;;;;64.15;23.85;;;;;;;;;;5051896;28;20016;-34
2022/11/01 04:26:10;;;;;;;53.45;22.63;;;;;;;;;;5052865;28;20025;-34
2022/11/01 04:28:35;;;;;;;70.82;23.38;;;;;;;;;;5051859;28;20028;-34
2022/11/01 04:31:00;;;;;;;65.35;22.38;;;;;;;;;;5052882;28;20090;-34
2022/11/01 04:33:26;;;;;;;75.10;24.85;;;;;;;;;;5053037;28;20104;-34
2022/11/01 04:35:51;;;;;;;76.07;23.27;;;;;;;;;;5051711;28;20025;-34
2022/11/01 04:38:16;;;;;;;80.03;23.30;;;;;;;;;;5053350;28;20029;-34
2022/11/01 04:40:42;;;;;;;60.00;22.33;;;;;;;;;;5052870;28;20021;-34
2022/11/01 04:43:08;;;;;;;80.50;24.67;;;;;;;;;;5052831;28;20063;-34
2022/11/01 04:45:33;;;;;;;67.82;23.02;;;;;;;;;;5051610;28;20036;-34
2022/11/01 04:48:01;;;;;;;77.18;24.45;;;;;;;;;;5053284;28;20025;-34
2022/11/01 04:50:27;;;;;;;68.65;22.92;;;;;;;;;;5051170;28;20503;-34
2022/11/01 04:52:52;;;;;;;72.97;24.02;;;;;;;;;;5052689;28;20025;-34
2022/11/01 04:55:17;;;;;;;79.55;24.63;;;;;;;;;;5051154;28;20106;-34
2022/11/01 04:57:43;;;;;;;57.47;22.10;;;;;;;;;;5053136;28;20032;-34
2022/11/01 05:00:10;;;;;;;64.50;24.38;;;;;;;;;;5051419;28;20078;-34
2022/11/01 05:02:35;;;;;;;70.95;24.00;;;;;;;;;;5052637;28;20021;-34
2022/11/01 05:05:01;;;;;;;68.00;23.27;;;;;;;;;;5052370;28;20035;-34
2022/11/01 05:07:27;;;;;;;57.30;21.85;;;;;;;;;;5051183;28;20051;-34
2022/11/01 05:09:52;;;;;;;72.20;23.83;;;;;;;;;;5051054;28;20403;-34
2022/11/01 05:12:18;;;;;;;71.22;25.30;;;;;;;;;;5052402;28;20108;-33
2022/11/01 05:14:43;;;;;;;76.10;25.70;;;;;;;;;;5051194;28;20059;-34
2022/11/01 05:17:08;;;;;;;74.93;25.40;;;;;;;;;;5052394;28;20056;-34
2022/11/01 05:19:34;;;;;;;88.75;26.63;;;;;;;;;;5051138;28;20061;-34
2022/11/01 05:21:59;;;;;;;80.07;26.05;;;;;;;;;;5052671;28;20027;-34
2022/11/01 05:24:24;;;;;;;77.85;26.05;;;;;;;;;;5052153;28;20032;-34
2022/11/01 05:26:50;;;;;;;76.30;25.67;;;;;;;;;;5056695;28;20029;-34
2022/11/01 05:29:15;;;;;;;84.00;26.45;;;;;;;;;;5056245;28;20016;-34
2022/11/01 05:31:40;;;;;;;86.03;26.58;;;;;;;;;;5056178;28;20041;-34
2022/11/01 05:34:06;;;;;;;90.50;26.30;;;;;;;;;;5055053;28;20025;-34
2022/11/01 05:36:31;;;;;;;109.13;29.90;;;;;;;;;;5056277;28;20459;-34
2022/11/01 05:38:56;;;;;;;82.70;28.13;;;;;;;;;;5056208;28;20029;-34
2022/11/01 05:41:22;;;;;;;93.03;29.73;;;;;;;;;;5056164;28;20479;-34
2022/11/01 05:43:47;;;;;;;92.93;27.40;;;;;;;;;;5056218;28;20033;-34
2022/11/01 05:46:12;;;;;;;97.55;29.52;;;;;;;;;;5054895;28;20082;-34
2022/11/01 05:48:39;;;;;;;86.72;27.17;;;;;;;;;;5056324;28;20083;-34
2022/11/01 05:51:05;;;;;;;93.55;26.40;;;;;;;;;;5055664;28;20476;-34
2022/11/01 05:53:30;;;;;;;120.30;27.75;;;;;;;;;;5055913;28;20082;-34
2022/11/01 05:55:55;;;;;;;104.53;29.02;;;;;;;;;;5054718;28;20472;-34
2022/11/01 05:58:21;;;;;;;100.07;27.42;;;;;;;;;;5054783;28;20029;-33
2022/11/01 06:00:46;;;;;;;84.55;26.42;;;;;;;;;;5055732;28;20017;-33
2022/11/01 06:03:11;;;;;;;77.15;24.85;;;;;;;;;;5055692;28;20024;-33
2022/11/01 06:05:37;;;;;;;75.60;26.30;;;;;;;;;;5054466;28;20070;-33
2022/11/01 06:08:03;;;;;;;94.32;25.80;;;;;;;;;;5055975;28;20342;-33
2022/11/01 06:10:29;;;;;;;132.05;29.17;;;;;;;;;;5053904;28;20037;-33
2022/11/01 06:12:54;;;;;;;115.82;26.48;;;;;;;;;;5055446;28;20017;-34
2022/11/01 06:15:19;;;;;;;96.82;27.52;;;;;;;;;;5055859;28;20096;-33
2022/11/01 06:17:45;;;;;;;104.90;27.13;;;;;;;;;;5054365;28;20468;-33
2022/11/01 06:20:10;;;;;;;90.40;28.75;;;;;;;;;;5053963;28;20044;-34
2022/11/01 06:22:36;;;;;;;95.88;29.60;;;;;;;;;;5055611;28;20025;-36
2022/11/01 06:25:01;;;;;;;100.88;29.52;;;;;;;;;;5055376;28;20039;-34
2022/11/01 06:27:27;;;;;;;103.50;28.77;;;;;;;;;;5055259;28;20028;-34
2022/11/01 06:29:52;;;;;;;88.22;28.48;;;;;;;;;;5055104;28;20040;-34
2022/11/01 06:32:17;;;;;;;89.07;29.83;;;;;;;;;;5053886;28;20021;-34
2022/11/01 06:34:43;;;;;;;93.90;28.90;;;;;;;;;;5055046;28;20021;-34
2022/11/01 06:37:08;;;;;;;105.57;28.65;;;;;;;;;;5054073;28;20021;-34
2022/11/01 06:39:33;;;;;;;99.25;27.02;;;;;;;;;;5055034;28;20031;-34
2022/11/01 06:41:59;;;;;;;86.20;28.65;;;;;;;;;;5055383;28;20021;-34
2022/11/01 06:44:24;;;;;;;112.77;29.70;;;;;;;;;;5054841;28;20021;-34
2022/11/01 06:46:49;;;;;;;118.53;29.75;;;;;;;;;;5053699;28;20254;-34
2022/11/01 06:49:14;;;;;;;89.03;31.02;;;;;;;;;;5054852;28;20020;-34
2022/11/01 06:51:40;;;;;;;88.38;29.38;;;;;;;;;;5054644;28;20103;-34
2022/11/01 06:54:05;;;;;;;118.65;33.00;;;;;;;;;;5053435;28;20119;-34
2022/11/01 06:56:30;;;;;;;116.63;31.67;;;;;;;;;;5054938;28;20706;-34
2022/11/01 06:58:56;;;;;;;119.07;31.52;;;;;;;;;;5054765;28;20029;-34
2022/11/01 07:01:23;;;;;;;131.85;33.47;;;;;;;;;;5053590;28;20021;-34
2022/11/01 07:03:49;;;;;;;122.13;30.85;;;;;;;;;;5053514;28;20497;-33
2022/11/01 07:06:15;;;;;;;182.98;50.33;;;;;;;;;;5054562;28;20514;-34
2022/11/01 07:08:40;;;;;;;149.18;37.60;;;;;;;;;;5053151;28;20052;-34
2022/11/01 07:11:05;;;;;;;141.43;38.13;;;;;;;;;;5053363;28;20033;-34
2022/11/01 07:13:32;;;;;;;117.22;31.75;;;;;;;;;;5054525;28;20036;-34
2022/11/01 07:16:00;;;;;;;117.25;33.53;;;;;;;;;;5053313;28;20497;-34
2022/11/01 07:18:28;;;;;;;95.00;34.38;;;;;;;;;;5054406;28;20020;-34
2022/11/01 07:20:54;;;;;;;91.35;27.58;;;;;;;;;;5054382;28;20372;-34
2022/11/01 07:23:19;;;;;;;123.82;32.38;;;;;;;;;;5054259;28;20025;-34
2022/11/01 07:25:49;;;;;;;99.55;28.95;;;;;;;;;;5053398;28;20013;-34
2022/11/01 07:28:14;;;;;;;105.45;28.10;;;;;;;;;;5054568;28;20035;-34
2022/11/01 07:30:39;;;;;;;96.95;29.88;;;;;;;;;;5053998;28;20036;-34
2022/11/01 07:33:05;;;;;;;119.63;32.00;;;;;;;;;;5052853;28;20021;-34
2022/11/01 07:35:30;;;;;;;113.57;30.10;;;;;;;;;;5054241;28;20031;-34
2022/11/01 07:37:57;;;;;;;135.13;33.72;;;;;;;;;;5054094;28;20036;-34
2022/11/01 07:40:26;;;;;;;132.10;33.88;;;;;;;;;;5054118;28;20021;-34
2022/11/01 07:42:52;;;;;;;130.40;35.70;;;;;;;;;;5053757;28;20021;-35
2022/11/01 07:45:17;;;;;;;129.15;32.80;;;;;;;;;;5054007;28;20032;-34
2022/11/01 07:47:42;;;;;;;155.10;35.08;;;;;;;;;;5053529;28;20503;-34
2022/11/01 07:50:08;;;;;;;148.25;35.55;;;;;;;;;;5052337;28;20056;-35
2022/11/01 07:52:33;;;;;;;132.88;34.03;;;;;;;;;;5053531;28;20550;-34
2022/11/01 07:54:59;;;;;;;122.25;33.63;;;;;;;;;;5053801;28;20041;-34
2022/11/01 07:57:25;;;;;;;117.47;34.97;;;;;;;;;;5052498;28;20460;-34
2022/11/01 07:59:50;;;;;;;116.50;32.42;;;;;;;;;;5053548;28;20063;-34
2022/11/01 08:02:15;;;;;;;113.88;33.33;;;;;;;;;;5053690;28;20029;-35
2022/11/01 08:04:41;;;;;;;118.55;33.78;;;;;;;;;;5052156;28;20025;-35
2022/11/01 08:07:06;;;;;;;106.88;33.25;;;;;;;;;;5053207;28;20033;-34
2022/11/01 08:09:31;;;;;;;106.18;33.38;;;;;;;;;;5053424;28;20086;-34
2022/11/01 08:11:58;;;;;;;110.38;32.30;;;;;;;;;;5053300;28;20040;-34
2022/11/01 08:14:23;;;;;;;94.65;30.60;;;;;;;;;;5053373;28;20021;-34
2022/11/01 08:16:54;;;;;;;90.10;31.05;;;;;;;;;;5053429;28;20860;-34
2022/11/01 08:19:20;;;;;;;98.82;33.53;;;;;;;;;;5053544;28;20028;-34
2022/11/01 08:21:46;;;;;;;96.90;34.35;;;;;;;;;;5053053;28;20021;-34
2022/11/01 08:24:11;;;;;;;95.80;30.30;;;;;;;;;;5053281;28;20399;-34
2022/11/01 08:26:36;;;;;;;91.28;31.58;;;;;;;;;;5053345;28;20025;-34
2022/11/01 08:29:02;;;;;;;79.50;25.70;;;;;;;;;;5053265;28;20029;-34
2022/11/01 08:31:27;;;;;;;81.10;29.17;;;;;;;;;;5051625;28;20036;-34
2022/11/01 08:33:53;;;;;;;87.07;29.00;;;;;;;;;;5052918;28;20032;-35
2022/11/01 08:36:20;;;;;;;86.00;30.58;;;;;;;;;;5053134;28;20029;-35
2022/11/01 08:38:45;;;;;;;83.57;30.10;;;;;;;;;;5052746;28;20451;-34
2022/11/01 08:41:11;;;;;;;80.88;29.02;;;;;;;;;;5052002;28;20180;-34
2022/11/01 08:43:36;;;;;;;72.95;27.67;;;;;;;;;;5052916;28;20025;-34
2022/11/01 08:46:01;;;;;;;83.38;30.33;;;;;;;;;;5051621;28;20119;-34
2022/11/01 08:48:27;;;;;;;89.28;30.50;;;;;;;;;;5052841;28;20023;-34
2022/11/01 08:50:52;;;;;;;73.10;28.27;;;;;;;;;;5052651;28;20143;-34
2022/11/01 08:53:18;;;;;;;69.43;29.10;;;;;;;;;;5053113;28;20036;-34
2022/11/01 08:55:43;;;;;;;71.75;28.90;;;;;;;;;;5052983;28;20032;-34
2022/11/01 08:58:09;;;;;;;65.13;27.75;;;;;;;;;;5052819;28;20021;-34
2022/11/01 09:00:34;;;;;;;68.20;28.73;;;;;;;;;;5052324;28;20066;-34
2022/11/01 09:03:00;;;;;;;75.60;28.95;;;;;;;;;;5052763;28;20051;-34
2022/11/01 09:05:25;;;;;;;74.57;31.70;;;;;;;;;;5052525;28;20100;-34
2022/11/01 09:07:59;;;;;;;69.68;27.65;;;;;;;;;;5052694;28;20017;-34
2022/11/01 09:10:25;;;;;;;72.07;28.13;;;;;;;;;;5052427;28;20029;-34
2022/11/01 09:12:50;;;;;;;70.70;29.42;;;;;;;;;;5051339;28;20031;-34
2022/11/01 09:15:15;;;;;;;68.55;28.10;;;;;;;;;;5051129;28;20025;-34
2022/11/01 09:17:41;;;;;;;63.97;26.98;;;;;;;;;;5052718;28;20060;-34
2022/11/01 09:20:08;;;;;;;73.43;29.52;;;;;;;;;;5052311;28;20017;-34
2022/11/01 09:22:36;;;;;;;74.40;28.40;;;;;;;;;;5052585;28;20419;-34
2022/11/01 09:25:01;;;;;;;70.10;28.98;;;;;;;;;;5052495;28;20035;-34
2022/11/01 09:27:27;;;;;;;71.38;28.63;;;;;;;;;;5052391;28;20025;-34
2022/11/01 09:29:53;;;;;;;67.53;27.83;;;;;;;;;;5052409;28;20033;-34
2022/11/01 09:32:18;;;;;;;66.38;27.77;;;;;;;;;;5051942;28;20036;-34
2022/11/01 09:34:44;;;;;;;61.20;27.58;;;;;;;;;;5052702;28;20031;-34
2022/11/01 09:37:09;;;;;;;68.15;28.25;;;;;;;;;;5052248;28;20025;-34
2022/11/01 09:39:34;;;;;;;70.50;28.67;;;;;;;;;;5052626;28;20471;-34
2022/11/01 09:42:14;;;;;;;69.30;28.00;;;;;;;;;;5052455;28;20098;-34
2022/11/01 09:44:42;;;;;;;71.78;29.38;;;;;;;;;;5052199;28;20464;-34
2022/11/01 09:47:28;;;;;;;61.77;28.43;;;;;;;;;;5052088;28;20029;-34
2022/11/01 09:50:05;;;;;;;61.88;28.42;;;;;;;;;;5050121;28;20045;-34
2022/11/01 09:52:30;;;;;;;69.15;30.35;;;;;;;;;;5050866;28;20029;-34
2022/11/01 09:54:56;;;;;;;70.85;30.10;;;;;;;;;;5050892;28;20017;-34
2022/11/01 09:57:35;;;;;;;79.10;35.50;;;;;;;;;;5051949;28;20100;-35
2022/11/01 10:00:00;;;;;;;73.32;33.83;;;;;;;;;;5052202;28;20044;-34
2022/11/01 10:02:45;;;;;;;69.32;30.58;;;;;;;;;;5052013;28;20460;-34
2022/11/01 10:05:16;;;;;;;72.38;33.80;;;;;;;;;;5052130;28;20023;-34
2022/11/01 10:07:44;;;;;;;73.78;31.65;;;;;;;;;;5051988;28;20017;-35
2022/11/01 10:10:10;;;;;;;75.85;33.42;;;;;;;;;;5052503;28;20037;-34
2022/11/01 10:12:44;;;;;;;74.93;31.95;;;;;;;;;;5055887;28;20375;-34
2022/11/01 10:15:16;;;;;;;78.80;35.15;;;;;;;;;;5054397;28;20032;-34
2022/11/01 10:17:48;;;;;;;73.18;33.67;;;;;;;;;;5056022;28;20027;-35
2022/11/01 10:20:14;;;;;;;77.00;35.75;;;;;;;;;;5054114;28;20124;-34
2022/11/01 10:22:42;;;;;;;78.00;35.40;;;;;;;;;;5054177;28;20116;-35
2022/11/01 10:25:18;;;;;;;76.60;34.42;;;;;;;;;;5054037;28;20017;-34
2022/11/01 10:27:57;;;;;;;81.18;33.85;;;;;;;;;;5055198;28;20033;-34
2022/11/01 10:30:23;;;;;;;78.53;35.10;;;;;;;;;;5054998;28;20067;-34
2022/11/01 10:32:51;;;;;;;75.88;34.85;;;;;;;;;;5055425;28;20027;-35
2022/11/01 10:35:27;;;;;;;70.35;35.10;;;;;;;;;;5055405;28;20021;-34
2022/11/01 10:37:53;;;;;;;67.32;34.65;;;;;;;;;;5055664;28;20114;-34
2022/11/01 10:40:22;;;;;;;73.77;36.50;;;;;;;;;;5054976;28;20029;-34
2022/11/01 10:42:47;;;;;;;71.75;37.35;;;;;;;;;;5054953;28;20399;-34
2022/11/01 10:45:17;;;;;;;66.97;34.80;;;;;;;;;;5053576;28;20167;-34
2022/11/01 10:47:42;;;;;;;;;;;;;;;;;;5055489;28;20532;-34
2022/11/01 10:50:10;;;;;;;70.65;34.33;;;;;;;;;;5053349;28;20011;-34
2022/11/01 10:52:54;;;;;;;73.07;37.17;;;;;;;;;;5055018;28;20064;-34
2022/11/01 10:55:28;;;;;;;71.32;35.65;;;;;;;;;;5054864;28;20500;-34
2022/11/01 10:57:56;;;;;;;80.40;35.70;;;;;;;;;;5053199;28;20029;-34
2022/11/01 11:00:22;;;;;;;75.05;37.92;;;;;;;;;;5054738;28;20025;-34
2022/11/01 11:02:55;;;;;;;75.78;38.33;;;;;;;;;;5054857;28;20045;-34
2022/11/01 11:05:22;;;;;;;80.15;39.30;;;;;;;;;;5054852;28;20029;-34
2022/11/01 11:07:47;;;;;;;78.10;36.72;;;;;;;;;;5054574;28;20376;-34
2022/11/01 11:10:16;;;;;;;74.88;37.63;;;;;;;;;;5052757;28;20039;-34
2022/11/01 11:12:41;;;;;;;79.63;38.67;;;;;;;;;;5053314;28;20020;-34
2022/11/01 11:15:15;;;;;;;87.32;41.45;;;;;;;;;;5054566;28;20021;-34
2022/11/01 11:17:43;;;;;;;91.30;42.08;;;;;;;;;;5054408;28;20108;-34
2022/11/01 11:20:10;;;;;;;72.80;37.97;;;;;;;;;;5054335;28;20391;-34
2022/11/01 11:22:38;;;;;;;79.25;39.78;;;;;;;;;;5053812;28;20017;-34
2022/11/01 11:25:04;;;;;;;79.70;40.90;;;;;;;;;;5054207;28;20082;-34
2022/11/01 11:27:30;;;;;;;81.47;41.42;;;;;;;;;;5053013;28;20104;-34
2022/11/01 11:29:57;;;;;;;80.70;39.28;;;;;;;;;;5054237;28;20033;-34
2022/11/01 11:32:32;;;;;;;84.03;42.08;;;;;;;;;;5054244;28;20482;-35
2022/11/01 11:35:16;;;;;;;95.75;46.95;;;;;;;;;;5054470;28;20033;-34
2022/11/01 11:37:50;;;;;;;91.05;43.35;;;;;;;;;;5054383;28;20016;-34
2022/11/01 11:40:23;;;;;;;83.18;40.80;;;;;;;;;;5052784;28;20032;-34
2022/11/01 11:42:49;;;;;;;89.05;43.15;;;;;;;;;;5053930;28;20383;-34
2022/11/01 11:45:17;;;;;;;87.38;40.58;;;;;;;;;;5053953;28;20017;-34
2022/11/01 11:47:43;;;;;;;87.43;41.25;;;;;;;;;;5053708;28;20495;-36
2022/11/01 11:50:20;;;;;;;109.35;51.13;;;;;;;;;;5053712;28;20040;-34
2022/11/01 11:53:03;;;;;;;103.40;48.65;;;;;;;;;;5052640;28;20110;-34
2022/11/01 11:55:40;;;;;;;90.70;44.50;;;;;;;;;;5053757;28;20112;-34
2022/11/01 11:58:14;;;;;;;96.95;44.20;;;;;;;;;;5053575;28;20056;-34
2022/11/01 12:00:42;;;;;;;95.50;45.95;;;;;;;;;;5053975;28;20052;-34
2022/11/01 12:03:11;;;;;;;84.50;40.88;;;;;;;;;;5053787;28;20021;-34
2022/11/01 12:05:37;;;;;;;94.45;44.08;;;;;;;;;;5053724;28;20032;-34
2022/11/01 12:08:03;;;;;;;85.15;42.38;;;;;;;;;;5053450;28;20112;-34
2022/11/01 12:10:31;;;;;;;79.05;40.45;;;;;;;;;;5051958;28;20460;-35
2022/11/01 12:12:56;;;;;;;80.80;41.40;;;;;;;;;;5053308;28;20402;-35
2022/11/01 12:15:27;;;;;;;78.70;38.70;;;;;;;;;;5053655;28;20024;-35
2022/11/01 12:17:52;;;;;;;80.10;40.25;;;;;;;;;;5053397;28;20491;-35
2022/11/01 12:20:21;;;;;;;79.95;39.17;;;;;;;;;;5053400;28;20017;-35
2022/11/01 12:23:10;;;;;;;78.65;40.38;;;;;;;;;;5053340;28;20025;-35
2022/11/01 12:25:36;;;;;;;81.90;39.70;;;;;;;;;;5051820;28;20025;-35
2022/11/01 12:28:03;;;;;;;82.07;41.80;;;;;;;;;;5052099;28;20021;-35
2022/11/01 12:30:31;;;;;;;81.78;42.60;;;;;;;;;;5053143;28;20036;-35
2022/11/01 12:32:57;;;;;;;81.88;40.55;;;;;;;;;;5052876;28;20029;-35
2022/11/01 12:35:35;;;;;;;79.78;40.95;;;;;;;;;;5052671;28;20070;-35
2022/11/01 12:38:09;;;;;;;83.53;42.05;;;;;;;;;;5053182;28;20028;-35
2022/11/01 12:40:36;;;;;;;80.07;41.20;;;;;;;;;;5052984;28;20094;-35
2022/11/01 12:43:05;;;;;;;81.95;41.42;;;;;;;;;;5052904;28;20021;-35
2022/11/01 12:45:46;;;;;;;77.00;41.05;;;;;;;;;;5053016;28;20021;-35
2022/11/01 12:48:16;;;;;;;81.18;42.58;;;;;;;;;;5052788;28;20482;-35
2022/11/01 12:50:43;;;;;;;79.22;41.88;;;;;;;;;;5051049;28;20057;-35
2022/11/01 12:53:15;;;;;;;80.47;42.10;;;;;;;;;;5052521;28;20108;-35
2022/11/01 12:55:41;;;;;;;83.45;44.03;;;;;;;;;;5052535;28;20020;-35
2022/11/01 12:58:20;;;;;;;79.75;42.92;;;;;;;;;;5052821;28;20111;-35
2022/11/01 13:00:57;;;;;;;77.63;40.88;;;;;;;;;;5052505;28;20071;-35
2022/11/01 13:03:25;;;;;;;82.53;41.60;;;;;;;;;;5052794;28;20053;-35
2022/11/01 13:06:02;;;;;;;84.07;42.97;;;;;;;;;;5051399;28;20068;-35
2022/11/01 13:08:27;;;;;;;82.20;43.20;;;;;;;;;;5052632;28;20423;-36
2022/11/01 13:10:55;;;;;;;82.43;41.97;;;;;;;;;;5052607;28;20033;-34
2022/11/01 13:13:27;;;;;;;84.70;41.90;;;;;;;;;;5052473;28;20076;-33
2022/11/01 13:16:12;;;;;;;76.85;40.95;;;;;;;;;;5053055;28;20061;-34
2022/11/01 13:18:44;;;;;;;82.93;42.42;;;;;;;;;;5052176;28;20068;-34
2022/11/01 13:21:12;;;;;;;75.40;40.63;;;;;;;;;;5052393;28;20021;-33
2022/11/01 13:23:42;;;;;;;83.83;43.37;;;;;;;;;;5052415;28;20045;-34
2022/11/01 13:26:13;;;;;;;84.30;43.60;;;;;;;;;;5052606;28;20504;-33
2022/11/01 13:28:56;;;;;;;85.88;42.28;;;;;;;;;;5052873;28;20103;-34
2022/11/01 13:31:31;;;;;;;85.95;44.83;;;;;;;;;;5052231;28;20365;-34
2022/11/01 13:34:08;;;;;;;82.20;42.92;;;;;;;;;;5052406;28;20033;-34
2022/11/01 13:36:49;;;;;;;82.20;43.17;;;;;;;;;;5052379;28;20534;-34
2022/11/01 13:39:36;;;;;;;86.10;43.95;;;;;;;;;;5052223;28;20463;-34
2022/11/01 13:42:04;;;;;;;76.70;42.38;;;;;;;;;;5052631;28;20013;-34
2022/11/01 13:44:33;;;;;;;83.28;41.45;;;;;;;;;;5050751;28;20061;-34
2022/11/01 13:47:07;;;;;;;86.70;44.35;;;;;;;;;;5055831;28;20025;-35
2022/11/01 13:49:35;;;;;;;85.65;43.40;;;;;;;;;;5056057;28;20082;-33
2022/11/01 13:52:09;;;;;;;90.07;44.78;;;;;;;;;;5056132;28;20044;-33
2022/11/01 13:54:37;;;;;;;77.05;42.22;;;;;;;;;;5055949;28;20090;-33
2022/11/01 13:57:15;;;;;;;84.60;43.20;;;;;;;;;;5055846;28;20060;-33
2022/11/01 13:59:43;;;;;;;84.22;43.22;;;;;;;;;;5055955;28;20465;-33
2022/11/01 14:02:29;;;;;;;85.97;44.05;;;;;;;;;;5056110;28;20027;-33
2022/11/01 14:04:57;;;;;;;84.20;42.47;;;;;;;;;;5055126;28;20037;-33
2022/11/01 14:07:23;;;;;;;89.72;44.03;;;;;;;;;;5055551;28;20403;-34
2022/11/01 14:09:52;;;;;;;80.68;44.13;;;;;;;;;;5055881;28;20017;-33
2022/11/01 14:12:27;;;;;;;83.68;43.67;;;;;;;;;;5055620;28;20025;-33
2022/11/01 14:14:52;;;;;;;85.38;44.60;;;;;;;;;;5055657;28;20021;-34
2022/11/01 14:17:17;;;;;;;86.35;44.58;;;;;;;;;;5056100;28;20024;-34
2022/11/01 14:19:43;;;;;;;80.30;44.20;;;;;;;;;;5055508;28;20392;-35
2022/11/01 14:22:21;;;;;;;79.82;42.88;;;;;;;;;;5054045;28;20384;-34
2022/11/01 14:24:52;;;;;;;83.63;42.22;;;;;;;;;;5055516;28;20021;-34
2022/11/01 14:27:19;;;;;;;84.63;43.95;;;;;;;;;;5055451;28;20025;-34
2022/11/01 14:29:48;;;;;;;86.80;43.60;;;;;;;;;;5055365;28;20025;-33